Time;durP1;ratioP1;P1;durP2;ratioP2;P2;SDS_P1;SDS_P2;PMS_P1;PMS_P2;Temp;Humidity;BMP_temperature;BMP_pressure;BME280_temperature;BME280_humidity;BME280_pressure;Samples;Min_cycle;Max_cycle;Signal;HPM_P1;HPM_P2
2022/02/15 00:01:53;;;;;;;9.73;4.57;;;;;;;;;;5001592;28;20428;-80
2022/02/15 00:04:19;;;;;;;7.43;4.50;;;;;;;;;;5004691;28;20482;-80
2022/02/15 00:06:45;;;;;;;7.77;5.20;;;;;;;;;;5008179;28;20412;-80
2022/02/15 00:09:11;;;;;;;5.57;4.00;;;;;;;;;;5014060;28;20404;-80
2022/02/15 00:11:37;;;;;;;6.57;4.00;;;;;;;;;;5016674;28;20459;-80
2022/02/15 00:14:03;;;;;;;5.83;3.53;;;;;;;;;;5013192;28;20412;-80
2022/02/15 00:16:29;;;;;;;7.73;3.93;;;;;;;;;;5013669;28;20415;-80
2022/02/15 00:18:55;;;;;;;5.17;3.90;;;;;;;;;;5013376;28;20420;-80
2022/02/15 00:21:21;;;;;;;8.20;4.00;;;;;;;;;;5007096;28;20436;-81
2022/02/15 00:23:47;;;;;;;6.60;3.80;;;;;;;;;;5008260;28;20460;-80
2022/02/15 00:26:13;;;;;;;6.73;3.77;;;;;;;;;;5011977;28;20419;-79
2022/02/15 00:28:39;;;;;;;7.83;4.33;;;;;;;;;;5007943;28;20768;-80
2022/02/15 00:31:06;;;;;;;4.83;3.57;;;;;;;;;;5009399;28;20427;-80
2022/02/15 00:33:32;;;;;;;7.60;4.10;;;;;;;;;;5009029;28;20440;-81
2022/02/15 00:35:58;;;;;;;9.87;4.20;;;;;;;;;;5006479;28;20420;-81
2022/02/15 00:38:25;;;;;;;6.90;4.20;;;;;;;;;;5005597;28;20451;-82
2022/02/15 00:40:51;;;;;;;8.00;4.80;;;;;;;;;;5006418;28;20428;-81
2022/02/15 00:43:17;;;;;;;5.80;4.57;;;;;;;;;;5007022;28;20649;-81
2022/02/15 00:45:43;;;;;;;8.00;4.57;;;;;;;;;;5006644;28;20411;-81
2022/02/15 00:48:10;;;;;;;6.03;4.43;;;;;;;;;;5005495;28;20412;-81
2022/02/15 00:50:36;;;;;;;7.67;3.77;;;;;;;;;;5006009;28;20431;-81
2022/02/15 00:53:02;;;;;;;6.30;4.10;;;;;;;;;;5005690;28;20452;-81
2022/02/15 00:55:28;;;;;;;8.80;4.53;;;;;;;;;;5008368;28;20490;-81
2022/02/15 00:57:54;;;;;;;5.53;3.80;;;;;;;;;;5017948;28;20408;-81
2022/02/15 01:00:22;;;;;;;5.03;3.83;;;;;;;;;;5006313;28;20959;-81
2022/02/15 01:02:48;;;;;;;5.30;3.87;;;;;;;;;;5004997;28;20421;-80
2022/02/15 01:05:14;;;;;;;5.30;3.93;;;;;;;;;;5004861;28;20443;-81
2022/02/15 01:07:40;;;;;;;6.30;4.53;;;;;;;;;;5005900;28;20400;-81
2022/02/15 01:10:07;;;;;;;5.43;4.20;;;;;;;;;;5005599;28;20435;-81
2022/02/15 01:12:33;;;;;;;7.50;3.80;;;;;;;;;;5005935;28;20412;-80
2022/02/15 01:14:59;;;;;;;7.30;4.03;;;;;;;;;;5005651;28;20412;-79
2022/02/15 01:17:25;;;;;;;6.63;3.83;;;;;;;;;;5006941;28;20444;-81
2022/02/15 01:19:51;;;;;;;6.47;4.13;;;;;;;;;;5006468;28;20424;-80
2022/02/15 01:22:17;;;;;;;6.70;4.23;;;;;;;;;;5005623;28;20455;-80
2022/02/15 01:24:43;;;;;;;7.37;5.10;;;;;;;;;;5006454;28;20460;-81
2022/02/15 01:27:09;;;;;;;7.27;4.80;;;;;;;;;;5004351;28;20444;-81
2022/02/15 01:29:35;;;;;;;8.83;4.50;;;;;;;;;;5006298;28;20460;-81
2022/02/15 01:32:01;;;;;;;8.60;4.40;;;;;;;;;;5006381;28;20411;-80
2022/02/15 01:34:28;;;;;;;6.80;4.70;;;;;;;;;;5006283;28;20409;-80
2022/02/15 01:36:54;;;;;;;5.83;4.67;;;;;;;;;;5006414;28;20423;-80
2022/02/15 01:39:20;;;;;;;8.70;4.77;;;;;;;;;;5005872;28;20423;-81
2022/02/15 01:41:46;;;;;;;7.90;4.67;;;;;;;;;;5004224;28;20479;-81
2022/02/15 01:44:12;;;;;;;6.90;4.90;;;;;;;;;;5005796;28;20536;-81
2022/02/15 01:46:39;;;;;;;6.00;4.70;;;;;;;;;;5005032;28;20411;-80
2022/02/15 01:49:05;;;;;;;6.23;4.73;;;;;;;;;;5004354;28;20412;-81
2022/02/15 01:51:31;;;;;;;9.17;5.10;;;;;;;;;;5003873;28;20522;-80
2022/02/15 01:53:57;;;;;;;5.43;4.57;;;;;;;;;;5003408;28;20431;-81
2022/02/15 01:56:26;;;;;;;8.73;4.87;;;;;;;;;;5004868;28;20416;-81
2022/02/15 01:58:52;;;;;;;6.07;3.77;;;;;;;;;;5005695;28;20408;-81
2022/02/15 02:01:18;;;;;;;6.60;4.37;;;;;;;;;;5004635;28;20509;-81
2022/02/15 02:03:44;;;;;;;9.93;5.43;;;;;;;;;;5005178;28;20456;-81
2022/02/15 02:06:10;;;;;;;6.27;4.70;;;;;;;;;;5005801;28;20487;-81
2022/02/15 02:08:36;;;;;;;7.37;5.03;;;;;;;;;;5005223;28;20407;-80
2022/02/15 02:11:03;;;;;;;9.60;4.10;;;;;;;;;;5004047;28;20427;-80
2022/02/15 02:13:29;;;;;;;6.67;4.70;;;;;;;;;;4991571;28;20511;-79
2022/02/15 02:15:55;;;;;;;6.57;5.10;;;;;;;;;;5001047;28;20903;-79
2022/02/15 02:18:22;;;;;;;7.43;4.40;;;;;;;;;;4986729;28;20447;-80
2022/02/15 02:20:48;;;;;;;5.57;4.40;;;;;;;;;;4986188;28;20975;-79
2022/02/15 02:23:15;;;;;;;5.00;3.80;;;;;;;;;;4985717;28;20463;-82
2022/02/15 02:25:42;;;;;;;7.30;4.50;;;;;;;;;;4985964;28;20440;-80
2022/02/15 02:28:08;;;;;;;7.30;6.13;;;;;;;;;;4980776;28;20476;-79
2022/02/15 02:30:34;;;;;;;7.40;4.97;;;;;;;;;;4975776;28;20738;-80
2022/02/15 02:33:01;;;;;;;5.33;4.40;;;;;;;;;;4984125;28;20405;-79
2022/02/15 02:35:27;;;;;;;6.40;4.27;;;;;;;;;;4979221;28;20413;-79
2022/02/15 02:37:53;;;;;;;5.90;4.33;;;;;;;;;;4980924;28;20414;-80
2022/02/15 02:40:19;;;;;;;7.80;5.10;;;;;;;;;;4984764;28;20429;-80
2022/02/15 02:42:46;;;;;;;9.90;4.73;;;;;;;;;;4983364;28;20409;-80
2022/02/15 02:45:13;;;;;;;6.63;4.60;;;;;;;;;;4986047;28;20469;-80
2022/02/15 02:47:43;;;;;;;7.27;4.70;;;;;;;;;;4984328;28;20772;-80
2022/02/15 02:50:09;;;;;;;6.50;4.87;;;;;;;;;;4985519;28;20426;-81
2022/02/15 02:52:35;;;;;;;6.20;4.93;;;;;;;;;;4984631;28;20409;-81
2022/02/15 02:55:01;;;;;;;6.43;4.50;;;;;;;;;;4985116;28;20497;-81
2022/02/15 02:57:27;;;;;;;6.33;4.50;;;;;;;;;;4984675;28;20425;-81
2022/02/15 02:59:53;;;;;;;7.13;4.77;;;;;;;;;;4984946;28;20773;-81
2022/02/15 03:02:19;;;;;;;9.60;4.50;;;;;;;;;;4984763;28;20420;-81
2022/02/15 03:04:46;;;;;;;7.03;4.57;;;;;;;;;;4986143;28;20508;-81
2022/02/15 03:07:12;;;;;;;6.83;4.63;;;;;;;;;;4984326;28;20413;-81
2022/02/15 03:09:38;;;;;;;5.83;4.30;;;;;;;;;;4984765;28;20426;-81
2022/02/15 03:12:05;;;;;;;5.87;4.40;;;;;;;;;;4984078;28;20405;-81
2022/02/15 03:14:31;;;;;;;5.87;5.00;;;;;;;;;;4984730;28;20409;-81
2022/02/15 03:16:57;;;;;;;6.30;4.67;;;;;;;;;;4983957;28;20495;-81
2022/02/15 03:19:23;;;;;;;6.50;4.30;;;;;;;;;;4986240;28;20478;-81
2022/02/15 03:21:49;;;;;;;7.50;4.27;;;;;;;;;;4985404;28;20513;-81
2022/02/15 03:24:15;;;;;;;5.80;4.33;;;;;;;;;;4983073;28;20457;-81
2022/02/15 03:26:43;;;;;;;5.47;3.87;;;;;;;;;;4983048;28;20484;-81
2022/02/15 03:29:10;;;;;;;4.33;3.27;;;;;;;;;;4982957;28;20411;-81
2022/02/15 03:31:37;;;;;;;4.53;3.40;;;;;;;;;;4981901;28;20417;-81
2022/02/15 03:34:03;;;;;;;4.40;2.60;;;;;;;;;;4980519;28;20410;-81
2022/02/15 03:36:29;;;;;;;3.27;2.30;;;;;;;;;;4981165;28;20416;-82
2022/02/15 03:38:55;;;;;;;4.13;2.90;;;;;;;;;;4982794;28;20417;-81
2022/02/15 03:44:06;;;;;;;6.00;3.10;;;;;;;;;;4997690;28;20466;-81
2022/02/15 03:46:32;;;;;;;4.73;3.07;;;;;;;;;;5005242;28;20416;-81
2022/02/15 03:48:59;;;;;;;3.70;2.83;;;;;;;;;;5005422;28;20456;-80
2022/02/15 03:51:25;;;;;;;3.57;2.90;;;;;;;;;;5006457;28;20478;-81
2022/02/15 03:53:51;;;;;;;6.47;3.10;;;;;;;;;;5005188;28;20602;-81
2022/02/15 03:56:17;;;;;;;3.53;2.90;;;;;;;;;;5006498;28;20404;-80
2022/02/15 03:58:43;;;;;;;5.07;2.80;;;;;;;;;;5006244;28;20761;-81
2022/02/15 04:01:09;;;;;;;5.40;3.20;;;;;;;;;;5006528;28;20450;-80
2022/02/15 04:03:35;;;;;;;6.90;3.40;;;;;;;;;;5006028;28;20454;-81
2022/02/15 04:06:01;;;;;;;5.20;3.20;;;;;;;;;;5012635;28;20408;-80
2022/02/15 04:08:27;;;;;;;5.20;3.33;;;;;;;;;;5019757;28;20435;-81
2022/02/15 04:10:53;;;;;;;3.63;3.10;;;;;;;;;;5017020;28;20432;-81
2022/02/15 04:13:20;;;;;;;4.70;3.10;;;;;;;;;;5008736;28;20408;-81
2022/02/15 04:15:46;;;;;;;5.00;2.87;;;;;;;;;;5008896;28;20800;-81
2022/02/15 04:18:12;;;;;;;7.43;3.83;;;;;;;;;;5008343;28;20423;-81
2022/02/15 04:20:38;;;;;;;4.17;2.93;;;;;;;;;;5008660;28;20427;-81
2022/02/15 04:23:04;;;;;;;4.10;2.80;;;;;;;;;;5008251;28;20413;-81
2022/02/15 04:25:30;;;;;;;5.20;3.10;;;;;;;;;;5009156;28;20435;-81
2022/02/15 04:27:56;;;;;;;5.50;3.37;;;;;;;;;;5009528;28;20472;-81
2022/02/15 04:30:22;;;;;;;7.30;3.40;;;;;;;;;;5006673;28;20428;-81
2022/02/15 04:32:48;;;;;;;3.60;2.87;;;;;;;;;;5004228;28;20486;-81
2022/02/15 04:35:14;;;;;;;4.07;3.50;;;;;;;;;;5006335;28;20510;-81
2022/02/15 04:37:40;;;;;;;3.60;2.90;;;;;;;;;;5003670;28;20541;-81
2022/02/15 04:40:06;;;;;;;4.73;4.30;;;;;;;;;;5005945;28;20436;-81
2022/02/15 04:42:33;;;;;;;3.10;2.20;;;;;;;;;;5006248;28;20435;-81
2022/02/15 04:44:59;;;;;;;4.63;2.87;;;;;;;;;;5006104;28;20471;-81
2022/02/15 04:47:25;;;;;;;5.80;3.17;;;;;;;;;;5006010;28;20400;-81
2022/02/15 04:49:51;;;;;;;4.93;3.03;;;;;;;;;;5004822;28;20428;-81
2022/02/15 04:52:17;;;;;;;3.60;2.63;;;;;;;;;;5007659;28;20462;-81
2022/02/15 04:54:43;;;;;;;5.50;2.63;;;;;;;;;;5006843;28;20416;-81
2022/02/15 04:57:09;;;;;;;4.57;2.90;;;;;;;;;;5005080;28;20412;-81
2022/02/15 04:59:35;;;;;;;7.07;2.80;;;;;;;;;;5005057;28;20443;-81
2022/02/15 05:02:01;;;;;;;3.70;2.50;;;;;;;;;;5005570;28;20404;-81
2022/02/15 05:07:12;;;;;;;4.90;2.67;;;;;;;;;;5005621;28;20872;-81
2022/02/15 05:09:38;;;;;;;5.70;2.53;;;;;;;;;;5004752;28;20434;-81
2022/02/15 05:12:04;;;;;;;4.70;2.63;;;;;;;;;;5004815;28;20412;-80
2022/02/15 05:14:30;;;;;;;3.83;2.53;;;;;;;;;;5004348;28;20446;-81
2022/02/15 05:16:56;;;;;;;3.30;2.53;;;;;;;;;;5006265;28;20535;-81
2022/02/15 05:19:22;;;;;;;4.63;3.13;;;;;;;;;;5005940;28;20815;-81
2022/02/15 05:21:48;;;;;;;3.13;2.80;;;;;;;;;;5006245;28;20718;-81
2022/02/15 05:24:14;;;;;;;5.87;2.67;;;;;;;;;;5006430;28;20463;-81
2022/02/15 05:26:40;;;;;;;3.30;2.53;;;;;;;;;;5005176;28;20424;-81
2022/02/15 05:29:06;;;;;;;5.03;2.57;;;;;;;;;;5005133;28;20868;-81
2022/02/15 05:31:32;;;;;;;3.87;2.53;;;;;;;;;;5005940;28;20507;-81
2022/02/15 05:33:59;;;;;;;3.70;2.63;;;;;;;;;;5006130;28;20404;-80
2022/02/15 05:36:25;;;;;;;3.43;2.67;;;;;;;;;;5004374;28;20412;-81
2022/02/15 05:38:51;;;;;;;4.67;3.00;;;;;;;;;;5006307;28;20404;-80
2022/02/15 05:41:17;;;;;;;3.53;2.27;;;;;;;;;;5004588;28;20451;-81
2022/02/15 05:43:44;;;;;;;3.53;2.10;;;;;;;;;;5006114;28;20827;-80
2022/02/15 05:46:10;;;;;;;3.17;2.50;;;;;;;;;;5006029;28;20404;-81
2022/02/15 05:48:36;;;;;;;3.67;2.43;;;;;;;;;;5004774;28;20405;-81
2022/02/15 05:51:02;;;;;;;3.60;1.97;;;;;;;;;;5006470;28;20428;-81
2022/02/15 05:53:29;;;;;;;4.77;2.37;;;;;;;;;;5005410;28;20404;-80
2022/02/15 05:55:58;;;;;;;3.30;2.30;;;;;;;;;;5000397;28;20825;-80
2022/02/15 05:58:24;;;;;;;5.03;2.43;;;;;;;;;;4993452;28;20416;-80
2022/02/15 06:00:50;;;;;;;5.07;2.30;;;;;;;;;;4994826;28;20476;-80
2022/02/15 06:06:03;;;;;;;3.50;2.40;;;;;;;;;;5034107;22;20490;-79
2022/02/15 06:08:29;;;;;;;7.93;2.37;;;;;;;;;;5044158;28;20430;-79
2022/02/15 06:10:55;;;;;;;6.40;2.97;;;;;;;;;;5037977;28;20418;-78
2022/02/15 06:13:21;;;;;;;6.70;2.33;;;;;;;;;;5045623;28;20421;-79
2022/02/15 06:15:47;;;;;;;3.50;2.20;;;;;;;;;;5038330;28;20437;-79
2022/02/15 06:18:14;;;;;;;4.83;2.60;;;;;;;;;;5038239;28;20414;-79
2022/02/15 06:20:40;;;;;;;5.60;2.90;;;;;;;;;;5037306;28;20450;-79
2022/02/15 06:23:07;;;;;;;4.70;2.93;;;;;;;;;;5038343;28;20422;-79
2022/02/15 06:25:33;;;;;;;6.10;2.63;;;;;;;;;;5038226;28;20431;-80
2022/02/15 06:27:59;;;;;;;3.90;2.40;;;;;;;;;;5033789;28;20479;-79
2022/02/15 06:30:26;;;;;;;4.20;3.00;;;;;;;;;;5040744;28;20244;-78
2022/02/15 06:32:52;;;;;;;2.97;2.63;;;;;;;;;;5040656;28;20445;-78
2022/02/15 06:35:18;;;;;;;6.37;2.30;;;;;;;;;;5048100;28;20457;-79
2022/02/15 06:37:45;;;;;;;9.00;3.20;;;;;;;;;;5038196;28;20529;-77
2022/02/15 06:40:13;;;;;;;4.60;3.10;;;;;;;;;;5039612;28;20426;-79
2022/02/15 06:42:40;;;;;;;3.72;2.40;;;;;;;;;;5038756;28;20413;-78
2022/02/15 06:45:06;;;;;;;3.30;2.80;;;;;;;;;;5036314;28;20225;-77
2022/02/15 06:47:32;;;;;;;3.47;2.50;;;;;;;;;;5034829;28;20445;-77
2022/02/15 06:49:59;;;;;;;3.90;2.60;;;;;;;;;;5034735;28;20411;-78
2022/02/15 06:52:26;;;;;;;4.57;2.50;;;;;;;;;;5035954;28;20419;-78
2022/02/15 06:54:52;;;;;;;4.37;2.53;;;;;;;;;;5037444;28;20489;-77
2022/02/15 06:57:18;;;;;;;4.97;2.80;;;;;;;;;;5037087;28;20791;-79
2022/02/15 06:59:44;;;;;;;4.33;2.93;;;;;;;;;;5031008;28;20429;-77
2022/02/15 07:02:11;;;;;;;5.43;3.37;;;;;;;;;;5022059;28;20427;-77
2022/02/15 07:04:37;;;;;;;3.90;2.83;;;;;;;;;;5028209;28;20465;-78
2022/02/15 07:07:03;;;;;;;4.00;2.70;;;;;;;;;;5036781;28;20470;-78
2022/02/15 07:09:30;;;;;;;5.83;3.10;;;;;;;;;;5037471;28;20446;-78
2022/02/15 07:11:56;;;;;;;5.40;3.23;;;;;;;;;;5030711;28;20461;-79
2022/02/15 07:14:22;;;;;;;4.80;3.10;;;;;;;;;;5035544;28;20849;-79
2022/02/15 07:16:48;;;;;;;4.07;2.70;;;;;;;;;;5037359;28;20422;-78
2022/02/15 07:19:14;;;;;;;4.93;2.73;;;;;;;;;;5037939;28;20568;-79
2022/02/15 07:21:42;;;;;;;5.00;3.00;;;;;;;;;;5034925;28;20484;-78
2022/02/15 07:24:08;;;;;;;4.50;3.13;;;;;;;;;;5035985;28;20473;-78
2022/02/15 07:26:34;;;;;;;5.37;3.20;;;;;;;;;;5033569;28;20547;-78
2022/02/15 07:29:01;;;;;;;7.63;3.90;;;;;;;;;;5037281;28;20771;-79
2022/02/15 07:31:27;;;;;;;5.10;3.80;;;;;;;;;;5040312;28;20497;-79
2022/02/15 07:33:53;;;;;;;5.40;3.90;;;;;;;;;;5040615;28;20418;-79
2022/02/15 07:36:19;;;;;;;8.27;4.23;;;;;;;;;;5049467;28;20429;-78
2022/02/15 07:38:46;;;;;;;7.93;4.30;;;;;;;;;;5035921;28;20418;-79
2022/02/15 07:41:12;;;;;;;6.82;3.80;;;;;;;;;;5036359;28;20451;-78
2022/02/15 07:43:38;;;;;;;9.30;5.00;;;;;;;;;;5037056;28;20710;-79
2022/02/15 07:46:06;;;;;;;7.17;5.27;;;;;;;;;;5038139;28;20785;-78
2022/02/15 07:48:34;;;;;;;8.07;4.67;;;;;;;;;;5036708;28;20414;-78
2022/02/15 07:51:00;;;;;;;8.73;5.17;;;;;;;;;;5040225;28;20446;-77
2022/02/15 07:53:26;;;;;;;9.00;4.83;;;;;;;;;;5041346;28;20418;-78
2022/02/15 07:55:52;;;;;;;7.80;4.82;;;;;;;;;;5029519;28;20520;-78
2022/02/15 07:58:18;;;;;;;8.07;5.30;;;;;;;;;;5024579;28;20180;-77
2022/02/15 08:00:44;;;;;;;6.23;4.43;;;;;;;;;;5031684;28;20436;-78
2022/02/15 08:03:10;;;;;;;7.43;5.10;;;;;;;;;;5036786;28;20893;-77
2022/02/15 08:05:39;;;;;;;6.27;5.00;;;;;;;;;;5028550;28;20517;-77
2022/02/15 08:08:05;;;;;;;9.97;4.60;;;;;;;;;;5022248;28;20452;-78
2022/02/15 08:10:31;;;;;;;6.67;4.40;;;;;;;;;;5030096;28;20426;-77
2022/02/15 08:12:58;;;;;;;5.20;4.10;;;;;;;;;;5034223;28;20422;-78
2022/02/15 08:15:28;;;;;;;5.17;3.87;;;;;;;;;;5035903;28;20423;-78
2022/02/15 08:17:54;;;;;;;6.67;3.70;;;;;;;;;;5034840;28;20428;-78
2022/02/15 08:20:20;;;;;;;7.47;4.00;;;;;;;;;;5032537;28;20427;-78
2022/02/15 08:22:46;;;;;;;8.80;4.20;;;;;;;;;;5027388;28;20970;-78
2022/02/15 08:25:12;;;;;;;7.57;4.83;;;;;;;;;;5027833;28;20584;-78
2022/02/15 08:27:38;;;;;;;6.50;4.10;;;;;;;;;;5034194;28;20503;-78
2022/02/15 08:30:05;;;;;;;8.10;5.00;;;;;;;;;;5035340;28;20437;-78
2022/02/15 08:32:31;;;;;;;7.10;4.80;;;;;;;;;;5029111;28;20423;-77
2022/02/15 08:34:57;;;;;;;8.83;5.10;;;;;;;;;;5029483;28;20430;-79
2022/02/15 08:37:24;;;;;;;5.47;4.10;;;;;;;;;;5033669;28;20583;-79
2022/02/15 08:39:50;;;;;;;6.97;3.80;;;;;;;;;;5035749;28;20422;-77
2022/02/15 08:42:16;;;;;;;5.07;3.97;;;;;;;;;;5032424;28;20441;-78
2022/02/15 08:44:43;;;;;;;5.70;3.90;;;;;;;;;;5025769;28;20446;-78
2022/02/15 08:47:09;;;;;;;7.57;3.50;;;;;;;;;;5027550;28;20482;-77
2022/02/15 08:49:36;;;;;;;7.10;3.90;;;;;;;;;;5034305;28;20437;-77
2022/02/15 08:52:02;;;;;;;6.30;4.27;;;;;;;;;;5041471;28;20492;-78
2022/02/15 08:54:28;;;;;;;5.30;3.53;;;;;;;;;;5034014;28;20427;-77
2022/02/15 08:56:54;;;;;;;8.80;2.97;;;;;;;;;;5030521;28;20604;-77
2022/02/15 08:59:20;;;;;;;4.83;3.67;;;;;;;;;;5030876;28;20445;-77
2022/02/15 09:01:47;;;;;;;5.30;4.30;;;;;;;;;;5033656;28;20423;-78
2022/02/15 09:04:14;;;;;;;6.82;3.53;;;;;;;;;;5031821;28;20444;-79
2022/02/15 09:06:41;;;;;;;5.65;3.00;;;;;;;;;;5030590;28;20911;-79
2022/02/15 09:09:09;;;;;;;4.70;3.67;;;;;;;;;;5027963;28;20180;-80
2022/02/15 09:11:36;;;;;;;4.87;3.10;;;;;;;;;;5038560;28;20434;-78
2022/02/15 09:14:02;;;;;;;3.93;2.97;;;;;;;;;;5040594;28;20464;-79
2022/02/15 09:16:28;;;;;;;6.67;3.63;;;;;;;;;;5040492;28;20464;-78
2022/02/15 09:18:54;;;;;;;3.33;2.80;;;;;;;;;;5039068;28;20945;-78
2022/02/15 09:21:20;;;;;;;7.73;2.90;;;;;;;;;;5038888;28;20468;-79
2022/02/15 09:23:46;;;;;;;3.93;2.70;;;;;;;;;;5040263;28;20489;-78
2022/02/15 09:26:12;;;;;;;4.50;2.40;;;;;;;;;;5038024;28;20496;-77
2022/02/15 09:28:38;;;;;;;8.17;2.80;;;;;;;;;;5029214;28;20432;-78
2022/02/15 09:31:05;;;;;;;5.00;2.50;;;;;;;;;;5034802;28;20410;-78
2022/02/15 09:33:31;;;;;;;4.10;2.00;;;;;;;;;;5035895;28;20421;-78
2022/02/15 09:35:57;;;;;;;5.13;2.80;;;;;;;;;;5022332;28;20193;-78
2022/02/15 09:38:23;;;;;;;2.60;1.85;;;;;;;;;;5024419;28;20430;-77
2022/02/15 09:40:50;;;;;;;2.67;1.50;;;;;;;;;;5037308;28;20259;-78
2022/02/15 09:43:17;;;;;;;2.80;1.80;;;;;;;;;;5049461;28;20430;-78
2022/02/15 09:45:47;;;;;;;2.63;1.80;;;;;;;;;;5029133;28;20497;-77
2022/02/15 09:48:24;;;;;;;3.10;1.13;;;;;;;;;;5037118;28;20874;-79
2022/02/15 09:50:51;;;;;;;3.53;2.40;;;;;;;;;;5039119;28;20178;-79
2022/02/15 09:53:17;;;;;;;2.60;2.03;;;;;;;;;;5042347;28;20480;-78
2022/02/15 09:55:43;;;;;;;3.83;2.30;;;;;;;;;;5041254;28;20759;-78
2022/02/15 09:58:10;;;;;;;3.33;1.67;;;;;;;;;;5034386;28;20478;-79
2022/02/15 10:00:36;;;;;;;4.10;2.33;;;;;;;;;;5030090;28;20950;-79
2022/02/15 10:03:02;;;;;;;3.87;1.90;;;;;;;;;;5035024;28;20420;-79
2022/02/15 10:05:32;;;;;;;3.77;2.00;;;;;;;;;;5036075;28;20902;-80
2022/02/15 10:07:59;;;;;;;2.63;2.00;;;;;;;;;;5036309;28;20929;-80
2022/02/15 10:10:29;;;;;;;3.27;2.03;;;;;;;;;;5031153;28;20418;-79
2022/02/15 10:13:03;;;;;;;7.00;2.63;;;;;;;;;;5028268;28;20441;-79
2022/02/15 10:15:37;;;;;;;6.53;1.90;;;;;;;;;;5028233;28;20423;-78
2022/02/15 10:18:06;;;;;;;5.97;2.10;;;;;;;;;;5034897;28;20419;-78
2022/02/15 10:20:32;;;;;;;1.97;1.43;;;;;;;;;;5036156;28;20437;-78
2022/02/15 10:23:18;;;;;;;3.90;1.90;;;;;;;;;;5035613;28;20437;-78
2022/02/15 10:25:45;;;;;;;2.50;1.63;;;;;;;;;;5030408;28;20419;-80
2022/02/15 10:28:12;;;;;;;2.87;1.83;;;;;;;;;;5033641;28;20922;-79
2022/02/15 10:30:42;;;;;;;3.33;1.83;;;;;;;;;;5031893;28;20430;-79
2022/02/15 10:33:08;;;;;;;3.40;2.00;;;;;;;;;;5033946;28;20425;-78
2022/02/15 10:35:34;;;;;;;3.50;1.70;;;;;;;;;;5042923;28;20395;-78
2022/02/15 10:38:01;;;;;;;5.47;2.23;;;;;;;;;;5043209;28;20474;-78
2022/02/15 10:40:28;;;;;;;3.00;1.80;;;;;;;;;;5040058;28;20395;-79
2022/02/15 10:42:54;;;;;;;2.90;1.80;;;;;;;;;;5030029;28;20422;-78
2022/02/15 10:45:20;;;;;;;3.73;2.00;;;;;;;;;;5021947;28;20471;-79
2022/02/15 10:47:47;;;;;;;2.70;2.10;;;;;;;;;;5030711;28;20480;-80
2022/02/15 10:50:18;;;;;;;2.80;2.10;;;;;;;;;;5035443;28;20422;-78
2022/02/15 10:52:44;;;;;;;2.67;1.73;;;;;;;;;;5035541;28;20485;-80
2022/02/15 10:55:11;;;;;;;2.40;1.80;;;;;;;;;;5039546;28;20426;-78
2022/02/15 10:57:38;;;;;;;3.75;1.90;;;;;;;;;;5035015;28;20507;-78
2022/02/15 11:00:07;;;;;;;3.63;1.80;;;;;;;;;;5029271;28;20805;-79
2022/02/15 11:02:34;;;;;;;2.97;2.03;;;;;;;;;;5051384;28;20426;-78
2022/02/15 11:05:03;;;;;;;3.97;1.90;;;;;;;;;;5044597;28;20450;-79
2022/02/15 11:07:33;;;;;;;3.33;1.80;;;;;;;;;;5040402;28;20461;-78
2022/02/15 11:10:07;;;;;;;2.50;1.80;;;;;;;;;;5036154;28;20409;-79
2022/02/15 11:12:40;;;;;;;2.97;2.47;;;;;;;;;;5027748;28;20513;-77
2022/02/15 11:15:07;;;;;;;3.23;2.17;;;;;;;;;;5032127;28;20450;-78
2022/02/15 11:17:34;;;;;;;2.40;1.80;;;;;;;;;;5026680;28;20883;-76
2022/02/15 11:20:01;;;;;;;2.60;1.70;;;;;;;;;;5028381;28;20425;-77
2022/02/15 11:22:27;;;;;;;3.07;2.50;;;;;;;;;;5034118;28;20750;-77
2022/02/15 11:24:53;;;;;;;5.70;3.00;;;;;;;;;;5028203;28;20458;-78
2022/02/15 11:27:20;;;;;;;3.13;1.70;;;;;;;;;;5036941;28;20442;-77
2022/02/15 11:29:54;;;;;;;3.43;2.13;;;;;;;;;;5036581;28;20411;-77
2022/02/15 11:32:24;;;;;;;2.70;1.83;;;;;;;;;;5048916;28;20442;-76
2022/02/15 11:34:51;;;;;;;3.40;2.47;;;;;;;;;;5026722;28;20429;-79
2022/02/15 11:37:22;;;;;;;3.40;2.40;;;;;;;;;;5031289;28;20817;-78
2022/02/15 11:40:02;;;;;;;3.57;2.80;;;;;;;;;;5031310;28;20428;-78
2022/02/15 11:42:28;;;;;;;3.10;2.50;;;;;;;;;;5035911;28;20494;-78
2022/02/15 11:44:54;;;;;;;4.03;2.77;;;;;;;;;;5032485;28;20454;-79
2022/02/15 11:47:26;;;;;;;3.73;2.50;;;;;;;;;;5038268;28;20438;-79
2022/02/15 11:49:58;;;;;;;3.20;2.90;;;;;;;;;;5034170;28;20447;-79
2022/02/15 11:52:25;;;;;;;2.87;2.37;;;;;;;;;;5034273;28;20410;-78
2022/02/15 11:54:54;;;;;;;3.57;2.97;;;;;;;;;;5036945;28;20477;-78
2022/02/15 11:57:20;;;;;;;4.65;2.92;;;;;;;;;;5026928;28;20451;-78
2022/02/15 11:59:50;;;;;;;4.00;2.57;;;;;;;;;;5032776;28;20180;-78
2022/02/15 12:02:16;;;;;;;4.10;3.20;;;;;;;;;;5027763;28;20434;-77
2022/02/15 12:04:50;;;;;;;4.00;2.50;;;;;;;;;;5037709;28;20440;-78
2022/02/15 12:07:16;;;;;;;4.57;3.00;;;;;;;;;;5038603;28;20219;-79
2022/02/15 12:09:42;;;;;;;3.70;2.80;;;;;;;;;;5033744;28;20544;-77
2022/02/15 12:12:12;;;;;;;3.70;2.90;;;;;;;;;;5038422;28;20512;-79
2022/02/15 12:14:38;;;;;;;5.40;4.10;;;;;;;;;;5041939;28;20422;-77
2022/02/15 12:17:04;;;;;;;3.28;2.40;;;;;;;;;;5027543;28;20425;-77
2022/02/15 12:19:35;;;;;;;3.10;2.70;;;;;;;;;;5043715;28;20222;-77
2022/02/15 12:22:10;;;;;;;3.40;2.90;;;;;;;;;;5056866;28;20426;-78
2022/02/15 12:24:36;;;;;;;3.67;2.53;;;;;;;;;;5042647;28;20461;-77
2022/02/15 12:27:03;;;;;;;3.67;2.77;;;;;;;;;;5042915;28;20435;-79
2022/02/15 12:29:30;;;;;;;4.23;3.07;;;;;;;;;;5042384;28;20422;-78
2022/02/15 12:31:57;;;;;;;5.30;3.00;;;;;;;;;;5049960;28;20406;-78
2022/02/15 12:34:23;;;;;;;3.47;3.10;;;;;;;;;;5053263;28;20434;-78
2022/02/15 12:36:50;;;;;;;4.57;3.47;;;;;;;;;;5051031;28;20442;-77
2022/02/15 12:39:16;;;;;;;4.47;3.30;;;;;;;;;;5044852;28;20421;-77
2022/02/15 12:41:44;;;;;;;3.57;3.13;;;;;;;;;;5049845;28;20422;-78
2022/02/15 12:44:10;;;;;;;4.00;3.50;;;;;;;;;;5044171;28;20480;-78
2022/02/15 12:46:36;;;;;;;3.77;3.37;;;;;;;;;;5047169;28;20434;-78
2022/02/15 12:49:03;;;;;;;7.00;4.83;;;;;;;;;;5034229;28;21877;-79
2022/02/15 12:51:33;;;;;;;4.33;3.43;;;;;;;;;;5032075;28;20420;-79
2022/02/15 12:53:59;;;;;;;5.57;4.00;;;;;;;;;;5041802;28;20583;-79
2022/02/15 12:56:26;;;;;;;4.75;3.50;;;;;;;;;;5042021;28;20444;-78
2022/02/15 12:58:53;;;;;;;4.50;3.15;;;;;;;;;;5029967;28;20918;-78
2022/02/15 13:01:19;;;;;;;6.20;4.40;;;;;;;;;;5039304;28;20180;-78
2022/02/15 13:03:51;;;;;;;3.77;3.40;;;;;;;;;;5037854;28;20473;-78
2022/02/15 13:06:18;;;;;;;4.90;3.77;;;;;;;;;;5053090;28;20446;-77
2022/02/15 13:08:45;;;;;;;4.93;3.30;;;;;;;;;;5041117;28;20414;-79
2022/02/15 13:11:11;;;;;;;4.70;3.70;;;;;;;;;;5039764;28;20937;-78
2022/02/15 13:13:37;;;;;;;5.20;3.60;;;;;;;;;;5041467;28;20423;-78
2022/02/15 13:16:05;;;;;;;5.10;4.00;;;;;;;;;;5040342;28;20446;-77
2022/02/15 13:18:41;;;;;;;7.03;4.17;;;;;;;;;;5041576;28;20498;-79
2022/02/15 13:21:12;;;;;;;5.70;4.50;;;;;;;;;;5041193;28;20482;-78
2022/02/15 13:23:38;;;;;;;5.03;4.37;;;;;;;;;;5040518;28;20469;-79
2022/02/15 13:26:13;;;;;;;6.20;4.50;;;;;;;;;;5041455;28;20447;-80
2022/02/15 13:28:44;;;;;;;4.70;3.97;;;;;;;;;;5038252;28;20426;-79
2022/02/15 13:31:10;;;;;;;4.87;4.23;;;;;;;;;;5037842;28;20429;-78
2022/02/15 13:33:41;;;;;;;5.60;4.47;;;;;;;;;;5036113;28;20443;-77
2022/02/15 13:36:08;;;;;;;5.97;4.30;;;;;;;;;;5035529;28;20446;-79
2022/02/15 13:38:34;;;;;;;5.47;4.20;;;;;;;;;;5033538;28;20434;-79
2022/02/15 13:41:02;;;;;;;4.97;3.90;;;;;;;;;;5031960;28;20519;-78
2022/02/15 13:43:29;;;;;;;5.38;4.05;;;;;;;;;;5035170;28;20933;-78
2022/02/15 13:45:55;;;;;;;4.93;4.43;;;;;;;;;;5037479;28;20247;-78
2022/02/15 13:48:21;;;;;;;7.60;4.87;;;;;;;;;;5035517;28;20422;-80
2022/02/15 13:50:49;;;;;;;5.60;3.70;;;;;;;;;;5029403;28;20421;-79
2022/02/15 13:53:15;;;;;;;7.90;4.00;;;;;;;;;;5028944;28;20183;-79
2022/02/15 13:55:44;;;;;;;7.93;4.07;;;;;;;;;;5029573;28;20502;-80
2022/02/15 13:58:10;;;;;;;5.47;4.27;;;;;;;;;;5034424;28;20446;-80
2022/02/15 14:00:36;;;;;;;5.43;4.50;;;;;;;;;;5038801;28;20779;-78
2022/02/15 14:03:02;;;;;;;5.70;4.57;;;;;;;;;;5037732;28;20419;-79
2022/02/15 14:05:28;;;;;;;7.23;4.90;;;;;;;;;;5034815;28;20450;-81
2022/02/15 14:07:55;;;;;;;4.93;4.33;;;;;;;;;;5034258;28;20418;-78
2022/02/15 14:10:22;;;;;;;5.40;3.87;;;;;;;;;;5035561;28;20421;-79
2022/02/15 14:12:48;;;;;;;6.23;4.63;;;;;;;;;;5035349;28;20445;-79
2022/02/15 14:15:15;;;;;;;4.80;4.30;;;;;;;;;;5037736;28;20422;-78
2022/02/15 14:17:48;;;;;;;4.47;4.00;;;;;;;;;;5035473;28;20438;-78
2022/02/15 14:20:18;;;;;;;6.30;5.60;;;;;;;;;;5036763;28;20947;-78
2022/02/15 14:22:47;;;;;;;7.90;5.37;;;;;;;;;;5034516;28;20420;-78
2022/02/15 14:25:15;;;;;;;8.10;4.83;;;;;;;;;;5032466;28;20466;-77
2022/02/15 14:27:41;;;;;;;6.13;4.70;;;;;;;;;;5033809;28;20458;-78
2022/02/15 14:30:14;;;;;;;4.90;4.40;;;;;;;;;;5035536;28;20942;-79
2022/02/15 14:32:40;;;;;;;5.00;4.10;;;;;;;;;;5037691;28;20410;-79
2022/02/15 14:35:07;;;;;;;9.77;4.27;;;;;;;;;;5035819;28;20450;-79
2022/02/15 14:37:34;;;;;;;4.87;3.50;;;;;;;;;;5033616;28;21074;-80
2022/02/15 14:40:00;;;;;;;4.80;3.60;;;;;;;;;;5038492;28;20556;-77
2022/02/15 14:42:26;;;;;;;3.97;3.50;;;;;;;;;;5035588;28;20473;-78
2022/02/15 14:44:52;;;;;;;4.23;2.97;;;;;;;;;;5033535;28;20505;-78
2022/02/15 14:47:18;;;;;;;3.90;2.77;;;;;;;;;;5034100;28;20487;-78
2022/02/15 14:49:44;;;;;;;3.43;2.73;;;;;;;;;;5036414;28;20479;-78